createdAt,value
2023-03-01T00:02:35.841Z,8.18
2023-03-01T00:05:21.150Z,9.57
2023-03-01T00:08:06.553Z,8.75
2023-03-01T00:11:05.902Z,9.13
2023-03-01T00:13:54.094Z,8.18
2023-03-01T00:16:41.917Z,9.23
2023-03-01T00:19:27.203Z,9.32
2023-03-01T00:22:12.769Z,9.38
2023-03-01T00:24:58.211Z,9.45
2023-03-01T00:27:43.539Z,9.23
2023-03-01T00:30:29.121Z,9.27
2023-03-01T00:33:14.728Z,9.45
2023-03-01T00:36:00.756Z,9.27
2023-03-01T00:38:46.747Z,8.52
2023-03-01T00:41:32.439Z,7.90
2023-03-01T00:44:18.287Z,8.95
2023-03-01T00:47:03.682Z,9.82
2023-03-01T00:49:49.539Z,8.70
2023-03-01T00:52:34.784Z,8.70
2023-03-01T00:55:20.099Z,8.98
2023-03-01T00:58:05.550Z,8.82
2023-03-01T01:00:51.059Z,9.82
2023-03-01T01:03:36.219Z,9.23
2023-03-01T01:06:24.409Z,8.88
2023-03-01T01:09:17.851Z,8.60
2023-03-01T01:12:03.649Z,8.45
2023-03-01T01:14:49.062Z,8.48
2023-03-01T01:17:34.459Z,7.88
2023-03-01T01:20:19.992Z,8.38
2023-03-01T01:23:06.626Z,8.85
2023-03-01T01:25:51.556Z,8.68
2023-03-01T01:28:37.142Z,10.05
2023-03-01T01:31:24.687Z,8.82
2023-03-01T01:34:15.401Z,8.85
2023-03-01T01:37:03.605Z,9.45
2023-03-01T01:39:48.844Z,9.25
2023-03-01T01:42:34.261Z,10.65
2023-03-01T01:45:36.928Z,8.68
2023-03-01T01:48:25.122Z,9.18
2023-03-01T01:51:15.584Z,9.32
2023-03-01T01:54:02.290Z,7.60
2023-03-01T01:56:53.744Z,9.23
2023-03-01T01:59:39.972Z,9.65
2023-03-01T02:02:25.812Z,8.75
2023-03-01T02:05:20.532Z,8.85
2023-03-01T02:08:06.661Z,9.02
2023-03-01T02:10:53.690Z,8.65
2023-03-01T02:13:39.188Z,9.18
2023-03-01T02:16:24.394Z,9.40
2023-03-01T02:19:26.925Z,8.18
2023-03-01T02:22:29.739Z,8.32
2023-03-01T02:25:20.820Z,9.18
2023-03-01T02:28:11.981Z,9.50
2023-03-01T02:31:15.854Z,9.07
2023-03-01T02:34:05.390Z,9.52
2023-03-01T02:36:58.197Z,9.05
2023-03-01T02:42:36.656Z,8.77
2023-03-01T02:45:22.311Z,9.35
2023-03-01T02:48:07.411Z,9.52
2023-03-01T02:51:16.361Z,9.48
2023-03-01T02:54:42.636Z,10.30
2023-03-01T02:57:30.077Z,9.75
2023-03-01T03:00:34.157Z,9.13
2023-03-01T03:03:22.872Z,10.25
2023-03-01T03:06:08.791Z,9.00
2023-03-01T03:08:54.140Z,8.82
2023-03-01T03:11:43.606Z,9.82
2023-03-01T03:14:29.002Z,10.07
2023-03-01T03:17:14.237Z,10.40
2023-03-01T03:19:59.687Z,9.70
2023-03-01T03:22:45.502Z,8.95
2023-03-01T03:25:31.286Z,9.15
2023-03-01T03:28:16.896Z,10.52
2023-03-01T03:31:04.646Z,10.25
2023-03-01T03:33:50.026Z,10.65
2023-03-01T03:36:35.260Z,9.50
2023-03-01T03:39:21.257Z,9.70
2023-03-01T03:42:06.816Z,10.18
2023-03-01T03:44:52.081Z,9.07
2023-03-01T03:47:37.341Z,10.40
2023-03-01T03:50:22.513Z,9.63
2023-03-01T03:53:10.950Z,9.90
2023-03-01T03:55:56.228Z,9.55
2023-03-01T03:58:42.013Z,9.98
2023-03-01T04:01:27.242Z,10.32
2023-03-01T04:04:12.510Z,9.25
2023-03-01T04:06:57.892Z,9.55
2023-03-01T04:09:44.323Z,10.23
2023-03-01T04:12:29.396Z,10.55
2023-03-01T04:15:14.800Z,10.23
2023-03-01T04:18:00.586Z,10.57
2023-03-01T04:20:46.601Z,10.13
2023-03-01T04:23:31.769Z,11.02
2023-03-01T04:26:17.489Z,10.95
2023-03-01T04:29:03.012Z,9.93
2023-03-01T04:31:50.322Z,11.20
2023-03-01T04:34:35.761Z,11.05
2023-03-01T04:37:21.493Z,10.82
2023-03-01T04:40:16.852Z,11.23
2023-03-01T04:43:03.099Z,10.65
2023-03-01T04:45:48.876Z,10.38
2023-03-01T04:48:34.243Z,10.20
2023-03-01T04:51:19.645Z,10.52
2023-03-01T04:54:06.244Z,11.57
2023-03-01T04:56:51.441Z,10.63
2023-03-01T04:59:37.096Z,11.60
2023-03-01T05:02:22.260Z,11.90
2023-03-01T05:05:07.836Z,11.73
2023-03-01T05:08:01.450Z,12.13
2023-03-01T05:10:50.421Z,10.48
2023-03-01T05:13:37.128Z,14.05
2023-03-01T05:16:22.473Z,14.18
2023-03-01T05:19:16.082Z,12.82
2023-03-01T05:22:07.218Z,11.13
2023-03-01T05:24:52.228Z,10.23
2023-03-01T05:27:37.692Z,11.23
2023-03-01T05:30:23.535Z,11.60
2023-03-01T05:33:15.819Z,11.93
2023-03-01T05:36:01.941Z,11.65
2023-03-01T05:38:47.118Z,11.50
2023-03-01T05:41:32.374Z,10.10
2023-03-01T05:44:17.729Z,10.73
2023-03-01T05:47:03.075Z,11.77
2023-03-01T05:49:50.489Z,10.85
2023-03-01T05:52:35.882Z,11.07
2023-03-01T05:55:22.225Z,11.85
2023-03-01T05:58:09.452Z,10.70
2023-03-01T06:00:56.579Z,11.80
2023-03-01T06:03:43.161Z,11.13
2023-03-01T06:06:29.242Z,11.32
2023-03-01T06:09:15.425Z,10.73
2023-03-01T06:12:01.126Z,11.77
2023-03-01T06:14:48.473Z,12.13
2023-03-01T06:17:38.302Z,11.40
2023-03-01T06:20:25.453Z,13.65
2023-03-01T06:23:10.863Z,11.45
2023-03-01T06:25:56.710Z,11.18
2023-03-01T06:28:42.505Z,11.98
2023-03-01T06:31:28.516Z,10.45
2023-03-01T06:34:14.773Z,11.60
2023-03-01T06:37:00.199Z,12.60
2023-03-01T06:39:45.887Z,11.23
2023-03-01T06:42:31.579Z,10.82
2023-03-01T06:45:17.945Z,10.77
2023-03-01T06:48:07.456Z,10.82
2023-03-01T06:50:52.913Z,11.77
2023-03-01T06:53:38.628Z,11.70
2023-03-01T06:56:24.389Z,12.98
2023-03-01T06:59:10.115Z,12.98
2023-03-01T07:01:55.894Z,11.57
2023-03-01T07:04:41.801Z,12.88
2023-03-01T07:07:27.687Z,13.18
2023-03-01T07:10:14.286Z,7.47
2023-03-01T07:13:00.287Z,12.23
2023-03-01T07:15:45.995Z,12.30
2023-03-01T07:18:31.470Z,13.98
2023-03-01T07:21:17.463Z,12.00
2023-03-01T07:24:02.514Z,13.60
2023-03-01T07:26:52.190Z,11.65
2023-03-01T07:29:37.641Z,13.57
2023-03-01T07:32:22.942Z,11.85
2023-03-01T07:35:08.416Z,12.10
2023-03-01T07:37:54.052Z,13.57
2023-03-01T07:40:39.321Z,11.75
2023-03-01T07:43:24.696Z,11.93
2023-03-01T07:46:10.812Z,10.98
2023-03-01T07:48:56.230Z,13.75
2023-03-01T07:51:42.941Z,14.93
2023-03-01T07:54:28.158Z,12.82
2023-03-01T07:57:13.427Z,12.60
2023-03-01T07:59:58.842Z,12.70
2023-03-01T08:02:44.216Z,12.00
2023-03-01T08:05:29.861Z,12.27
2023-03-01T08:08:15.308Z,11.27
2023-03-01T08:11:02.244Z,9.70
2023-03-01T08:13:51.349Z,12.02
2023-03-01T08:16:37.996Z,11.43
2023-03-01T08:19:23.569Z,12.35
2023-03-01T08:22:09.062Z,13.10
2023-03-01T08:24:56.721Z,12.70
2023-03-01T08:27:41.865Z,13.65
2023-03-01T08:30:27.279Z,12.27
2023-03-01T08:33:12.707Z,12.38
2023-03-01T08:36:07.859Z,11.57
2023-03-01T08:38:54.058Z,11.63
2023-03-01T08:41:39.473Z,11.30
2023-03-01T08:44:25.526Z,11.43
2023-03-01T08:47:10.898Z,11.55
2023-03-01T08:49:56.542Z,11.15
2023-03-01T08:52:41.952Z,10.93
2023-03-01T08:55:27.328Z,10.68
2023-03-01T08:58:13.093Z,12.48
2023-03-01T09:00:58.268Z,12.00
2023-03-01T09:03:44.848Z,12.73
2023-03-01T09:06:33.931Z,11.70
2023-03-01T09:09:19.347Z,11.48
2023-03-01T09:12:05.418Z,13.02
2023-03-01T09:14:50.721Z,10.73
2023-03-01T09:17:36.014Z,11.63
2023-03-01T09:20:21.479Z,11.15
2023-03-01T09:23:06.815Z,10.68
2023-03-01T09:25:53.264Z,10.52
2023-03-01T09:28:39.568Z,11.43
2023-03-01T09:31:25.717Z,12.07
2023-03-01T09:34:11.116Z,10.98
2023-03-01T09:36:58.741Z,10.50
2023-03-01T09:39:43.810Z,11.52
2023-03-01T09:42:32.127Z,10.63
2023-03-01T09:45:26.528Z,9.88
2023-03-01T09:48:24.430Z,9.90
2023-03-01T09:51:18.134Z,10.75
2023-03-01T09:54:09.353Z,10.02
2023-03-01T09:57:18.068Z,10.00
2023-03-01T10:00:20.578Z,10.07
2023-03-01T10:03:16.800Z,10.38
2023-03-01T10:06:34.468Z,10.40
2023-03-01T10:09:22.115Z,10.82
2023-03-01T10:12:16.406Z,9.57
2023-03-01T10:15:05.637Z,9.52
2023-03-01T10:18:04.016Z,10.02
2023-03-01T10:21:04.347Z,10.63
2023-03-01T10:23:53.665Z,10.18
2023-03-01T10:26:45.209Z,9.13
2023-03-01T10:29:47.144Z,9.02
2023-03-01T10:32:32.841Z,9.80
2023-03-01T10:35:22.061Z,10.77
2023-03-01T10:38:08.572Z,9.50
2023-03-01T10:41:12.252Z,8.98
2023-03-01T10:44:00.518Z,10.30
2023-03-01T10:46:45.614Z,11.15
2023-03-01T10:49:31.064Z,10.48
2023-03-01T10:52:21.680Z,9.75
2023-03-01T10:55:10.123Z,10.05
2023-03-01T10:58:21.764Z,9.55
2023-03-01T11:01:24.563Z,10.35
2023-03-01T11:07:02.766Z,9.52
2023-03-01T11:09:47.767Z,10.23
2023-03-01T11:12:34.265Z,10.20
2023-03-01T11:15:26.445Z,10.80
2023-03-01T11:18:31.042Z,10.75
2023-03-01T11:21:22.421Z,10.18
2023-03-01T11:24:12.922Z,11.48
2023-03-01T11:27:03.628Z,10.05
2023-03-01T11:30:13.873Z,10.35
2023-03-01T11:33:25.036Z,10.65
2023-03-01T11:36:13.534Z,10.43
2023-03-01T11:39:11.933Z,9.75
2023-03-01T11:42:29.005Z,9.85
2023-03-01T11:45:14.394Z,10.65
2023-03-01T11:48:08.284Z,10.00
2023-03-01T11:50:56.227Z,9.38
2023-03-01T11:54:02.079Z,10.02
2023-03-01T11:57:02.151Z,9.55
2023-03-01T12:00:11.445Z,10.25
2023-03-01T12:03:26.141Z,11.60
2023-03-01T12:06:50.180Z,10.77
2023-03-01T12:09:51.428Z,10.52
2023-03-01T12:12:56.456Z,10.00
2023-03-01T12:16:13.599Z,9.80
2023-03-01T12:19:17.169Z,9.80
2023-03-01T12:22:23.891Z,9.40
2023-03-01T12:25:19.422Z,10.23
2023-03-01T12:28:33.663Z,8.88
2023-03-01T12:31:43.700Z,9.90
2023-03-01T12:34:51.517Z,9.68
2023-03-01T12:38:11.159Z,9.20
2023-03-01T12:41:35.191Z,10.63
2023-03-01T12:44:44.873Z,9.95
2023-03-01T12:47:54.836Z,9.98
2023-03-01T12:50:49.739Z,9.73
2023-03-01T12:53:43.199Z,10.13
2023-03-01T12:56:33.192Z,9.18
2023-03-01T12:59:43.809Z,10.07
2023-03-01T13:02:50.971Z,9.40
2023-03-01T13:05:53.126Z,9.48
2023-03-01T13:09:01.512Z,9.53
2023-03-01T13:11:46.697Z,9.80
2023-03-01T13:14:32.070Z,9.43
2023-03-01T13:17:33.185Z,10.38
2023-03-01T13:20:21.663Z,10.05
2023-03-01T13:23:22.403Z,9.55
2023-03-01T13:26:18.858Z,9.75
2023-03-01T13:29:03.945Z,9.77
2023-03-01T13:31:49.419Z,10.00
2023-03-01T13:34:45.758Z,9.52
2023-03-01T13:37:36.918Z,9.30
2023-03-01T13:40:23.567Z,10.15
2023-03-01T13:43:30.164Z,8.93
2023-03-01T13:46:21.012Z,9.20
2023-03-01T13:49:06.380Z,8.50
2023-03-01T13:51:52.224Z,9.63
2023-03-01T13:54:39.867Z,9.45
2023-03-01T13:57:37.463Z,8.82
2023-03-01T14:00:38.139Z,9.52
2023-03-01T14:03:23.734Z,9.73
2023-03-01T14:06:17.358Z,9.93
2023-03-01T14:09:06.616Z,10.30
2023-03-01T14:12:10.455Z,10.40
2023-03-01T14:15:05.404Z,10.63
2023-03-01T14:18:01.100Z,10.65
2023-03-01T14:20:52.061Z,11.73
2023-03-01T14:23:42.943Z,10.48
2023-03-01T14:26:28.371Z,11.45
2023-03-01T14:29:36.771Z,10.75
2023-03-01T14:32:26.033Z,11.50
2023-03-01T14:35:26.069Z,10.80
2023-03-01T14:38:22.544Z,11.00
2023-03-01T14:41:12.292Z,11.55
2023-03-01T14:44:04.548Z,10.82
2023-03-01T14:46:54.844Z,11.02
2023-03-01T14:49:40.381Z,11.88
2023-03-01T14:52:39.370Z,11.73
2023-03-01T14:55:35.722Z,12.55
2023-03-01T14:58:24.696Z,15.73
2023-03-01T15:01:17.602Z,13.00
2023-03-01T15:04:03.756Z,13.50
2023-03-01T15:06:52.699Z,12.90
2023-03-01T15:09:38.375Z,12.85
2023-03-01T15:12:29.504Z,13.45
2023-03-01T15:15:30.864Z,13.80
2023-03-01T15:18:23.124Z,14.93
2023-03-01T15:24:07.147Z,14.70
2023-03-01T15:26:55.045Z,12.98
2023-03-01T15:29:41.643Z,13.70
2023-03-01T15:32:31.495Z,14.50
2023-03-01T15:35:49.179Z,14.00
2023-03-01T15:38:41.342Z,13.88
2023-03-01T15:41:49.642Z,15.10
2023-03-01T15:44:44.024Z,14.32
2023-03-01T15:47:33.070Z,13.88
2023-03-01T15:50:36.812Z,13.55
2023-03-01T15:53:22.231Z,14.95
2023-03-01T15:56:08.413Z,13.63
2023-03-01T15:58:53.559Z,12.82
2023-03-01T16:01:39.047Z,13.50
2023-03-01T16:04:24.528Z,13.75
2023-03-01T16:07:10.906Z,14.45
2023-03-01T16:09:56.185Z,12.80
2023-03-01T16:12:41.625Z,15.52
2023-03-01T16:15:32.655Z,13.57
2023-03-01T16:18:18.538Z,13.98
2023-03-01T16:21:03.970Z,13.75
2023-03-01T16:23:50.300Z,13.80
2023-03-01T16:26:37.217Z,13.48
2023-03-01T16:29:22.843Z,12.60
2023-03-01T16:32:08.427Z,13.35
2023-03-01T16:34:53.808Z,13.32
2023-03-01T16:37:40.316Z,12.48
2023-03-01T16:40:28.223Z,12.80
2023-03-01T16:43:13.746Z,13.57
2023-03-01T16:45:59.804Z,13.52
2023-03-01T16:48:45.628Z,13.25
2023-03-01T16:51:31.963Z,12.98
2023-03-01T16:54:17.622Z,14.70
2023-03-01T16:57:05.437Z,12.80
2023-03-01T16:59:54.572Z,12.93
2023-03-01T17:02:42.003Z,12.13
2023-03-01T17:05:27.481Z,13.57
2023-03-01T17:08:12.866Z,13.32
2023-03-01T17:11:04.911Z,13.73
2023-03-01T17:13:50.445Z,13.25
2023-03-01T17:16:36.826Z,14.07
2023-03-01T17:19:22.676Z,12.63
2023-03-01T17:22:08.464Z,13.25
2023-03-01T17:24:53.584Z,12.50
2023-03-01T17:27:39.752Z,12.73
2023-03-01T17:30:25.081Z,12.55
2023-03-01T17:33:10.818Z,13.43
2023-03-01T17:35:57.367Z,13.77
2023-03-01T17:38:42.452Z,14.43
2023-03-01T17:41:28.737Z,12.40
2023-03-01T17:44:14.079Z,12.68
2023-03-01T17:46:59.639Z,13.20
2023-03-01T17:49:45.037Z,13.23
2023-03-01T17:52:31.253Z,12.50
2023-03-01T17:55:16.588Z,13.27
2023-03-01T17:58:02.018Z,13.68
2023-03-01T18:00:47.441Z,11.70
2023-03-01T18:03:32.870Z,13.23
2023-03-01T18:06:24.254Z,13.50
2023-03-01T18:09:09.795Z,12.85
2023-03-01T18:11:55.375Z,12.23
2023-03-01T18:14:40.715Z,12.52
2023-03-01T18:17:26.730Z,12.88
2023-03-01T18:20:13.281Z,11.55
2023-03-01T18:22:58.326Z,11.52
2023-03-01T18:25:43.767Z,12.60
2023-03-01T18:28:30.700Z,11.60
2023-03-01T18:31:21.692Z,13.10
2023-03-01T18:34:07.019Z,12.50
2023-03-01T18:37:09.801Z,10.82
2023-03-01T18:42:40.607Z,10.25
2023-03-01T18:45:26.003Z,10.93
2023-03-01T18:48:14.081Z,10.90
2023-03-01T18:51:08.333Z,11.32
2023-03-01T18:53:53.759Z,12.38
2023-03-01T18:56:39.448Z,10.88
2023-03-01T18:59:25.214Z,11.43
2023-03-01T19:02:12.717Z,10.82
2023-03-01T19:04:58.148Z,12.07
2023-03-01T19:07:43.453Z,11.98
2023-03-01T19:10:29.109Z,12.50
2023-03-01T19:13:14.179Z,12.40
2023-03-01T19:16:14.620Z,11.68
2023-03-01T19:19:01.605Z,12.60
2023-03-01T19:21:55.952Z,12.25
2023-03-01T19:24:48.669Z,12.57
2023-03-01T19:27:34.357Z,13.07
2023-03-01T19:30:19.712Z,16.10
2023-03-01T19:33:14.771Z,16.25
2023-03-01T19:36:01.514Z,16.30
2023-03-01T19:38:51.206Z,14.60
2023-03-01T19:41:36.936Z,15.57
2023-03-01T19:44:24.929Z,16.23
2023-03-01T19:47:10.402Z,14.20
2023-03-01T19:49:55.717Z,14.60
2023-03-01T19:52:41.206Z,13.82
2023-03-01T19:55:26.688Z,12.75
2023-03-01T19:58:12.827Z,13.30
2023-03-01T20:00:58.910Z,14.38
2023-03-01T20:03:44.809Z,13.60
2023-03-01T20:06:30.919Z,14.13
2023-03-01T20:09:21.914Z,13.90
2023-03-01T20:12:07.998Z,13.27
2023-03-01T20:14:55.348Z,13.80
2023-03-01T20:17:40.555Z,12.48
2023-03-01T20:20:25.957Z,13.18
2023-03-01T20:23:11.350Z,11.88
2023-03-01T20:26:08.559Z,12.23
2023-03-01T20:28:56.988Z,11.80
2023-03-01T20:31:42.876Z,12.40
2023-03-01T20:34:28.307Z,11.93
2023-03-01T20:37:13.477Z,12.02
2023-03-01T20:39:58.868Z,12.13
2023-03-01T20:42:44.256Z,12.65
2023-03-01T20:45:29.842Z,12.77
2023-03-01T20:48:15.343Z,11.15
2023-03-01T20:51:05.223Z,12.82
2023-03-01T20:53:51.048Z,11.73
2023-03-01T20:56:36.224Z,15.27
2023-03-01T20:59:21.948Z,16.10
2023-03-01T21:02:07.477Z,15.40
2023-03-01T21:04:52.507Z,12.93
2023-03-01T21:07:38.275Z,13.57
2023-03-01T21:10:23.339Z,13.73
2023-03-01T21:13:10.415Z,13.45
2023-03-01T21:15:58.790Z,12.38
2023-03-01T21:18:44.056Z,13.05
2023-03-01T21:21:29.294Z,13.85
2023-03-01T21:24:14.642Z,13.18
2023-03-01T21:27:02.263Z,15.10
2023-03-01T21:29:47.708Z,13.98
2023-03-01T21:32:33.342Z,14.13
2023-03-01T21:35:18.658Z,15.18
2023-03-01T21:38:03.953Z,13.50
2023-03-01T21:40:49.286Z,13.50
2023-03-01T21:43:35.883Z,14.35
2023-03-01T21:46:24.810Z,12.85
2023-03-01T21:49:10.644Z,12.85
2023-03-01T21:51:56.060Z,11.85
2023-03-01T21:54:41.280Z,14.18
2023-03-01T21:57:26.906Z,14.02
2023-03-01T22:00:13.132Z,14.25
2023-03-01T22:02:58.426Z,13.27
2023-03-01T22:05:43.754Z,13.02
2023-03-01T22:08:29.516Z,11.95
2023-03-01T22:11:17.866Z,12.95
2023-03-01T22:14:04.719Z,13.63
2023-03-01T22:16:51.470Z,12.82
2023-03-01T22:19:37.060Z,13.27
2023-03-01T22:22:22.532Z,13.32
2023-03-01T22:25:08.730Z,12.88
2023-03-01T22:27:53.800Z,13.95
2023-03-01T22:30:39.151Z,12.50
2023-03-01T22:33:24.868Z,12.57
2023-03-01T22:36:10.053Z,12.18
2023-03-01T22:39:00.360Z,13.02
2023-03-01T22:41:48.204Z,13.63
2023-03-01T22:44:33.376Z,12.82
2023-03-01T22:47:18.762Z,11.88
2023-03-01T22:50:07.197Z,13.20
2023-03-01T22:52:52.351Z,12.75
2023-03-01T22:55:37.818Z,14.52
2023-03-01T22:58:23.308Z,13.38
2023-03-01T23:01:17.524Z,13.50
2023-03-01T23:04:02.953Z,12.32
2023-03-01T23:06:51.760Z,12.98
2023-03-01T23:09:37.434Z,11.13
2023-03-01T23:12:22.937Z,13.77
2023-03-01T23:15:09.566Z,11.82
2023-03-01T23:17:54.697Z,13.27
2023-03-01T23:20:40.101Z,12.50
2023-03-01T23:23:25.829Z,12.77
2023-03-01T23:26:11.069Z,13.15
2023-03-01T23:28:57.309Z,13.88
2023-03-01T23:31:42.413Z,12.07
2023-03-01T23:34:28.225Z,12.50
2023-03-01T23:37:13.238Z,12.90
2023-03-01T23:39:58.662Z,13.13
2023-03-01T23:42:43.715Z,13.63
2023-03-01T23:45:29.144Z,12.43
2023-03-01T23:48:14.463Z,11.77
2023-03-01T23:51:04.584Z,12.32
2023-03-01T23:53:54.587Z,12.50
2023-03-01T23:56:42.668Z,12.77
2023-03-01T23:59:28.049Z,11.90
